logo
Rechercher aéroport 
image banner adimage banner adimage banner ad
image banner ad

LZTN - Trencin

Situé à Trencin, Slovakia

ICAO - LZTN, IATA -

Données fournies par Airmate  

Information générale

Coordonnées: N48°51'51" E17°59'32"
Élévation : 675 feet MSL.
Variation magnétique : 4.3523° East
Voir autres Aéroports à Trencín

Données opérationnelles

Special qualification required
Heure actuelle UTC:
Heure actuelle locale:
Météo à : LZPP - Piestany ( 29 km )
METAR: LZPP 222300Z AUTO VRB02KT 9999 NCD 11/11 Q1012
TAF: TAF LZPP 221715Z 2218/2303 30005KT 9999 SCT030
Voir NOTAMs / SUP AIP / TFR affectant cet aéroport [VIEW]
Fréquences de communication: [VIEW]

Pistes:

Identifiant RWYQFULongueur (ft)Largeur (ft)SurfaceLDA (ft)
04656298CONC
22656298CONC
03R3182230GRASS
21L3182230GRASS
03L3182230GRASS
21R3182230GRASS

Coordonnées de l'aéroport

Adresse: Trencin Slovakia

Autres services d'aviation

Écoles de pilotage

Chudý Ján

Chudý Ján
chudy.jan@gmail.com+421465470500
+421907226126

Seagle Air

Seagle Air

Clubs d'aviation (sans but lucratif)

Aeroklub Trenčín

Aeroklub Trenčín

Vue satellite de LZTN